Latest Weather Observations for Mangrove Mountain

IDN60801

Issued at 5:22 pm EDT Thursday 21 February 2019 (issued every 10 minutes, with the page automatically refreshed every 10 minutes)

About weather observations | Map of weather stations | Latest weather observations for NSW | Other Formats
Station Details ID: 061375 Name: MANGROVE MOUNTAIN AWS Lat: -33.29 Lon: 151.21 Height: 305.0 m
Data from the previous 72 hours. | See also: Recent months at Mangrove Mountain
Date/Time
EDT
Temp
°C
App
Temp
°C
Dew
Point
°C
Rel
Hum
%
Delta-T
°C
Wind Press
QNH
hPa
Press
MSL
hPa
Rain since
9am
mm
Dir  Spd
km/h
Gust
km/h
Spd
kts
Gust
kts
21/05:00pm 21.3 21.9 18.5 84 1.8 SE 13 20 7 11 - - 1.0
21/04:30pm 21.4 21.9 18.4 83 1.9 SE 13 17 7 9 - - 1.0
21/04:00pm 21.4 21.9 18.4 83 1.9 SE 13 24 7 13 - - 1.0
21/03:30pm 21.2 21.9 18.9 87 1.5 SE 13 24 7 13 - - 1.0
21/03:00pm 20.2 22.4 19.5 96 0.4 SE 7 11 4 6 - - 1.0
21/02:30pm 19.7 21.0 18.5 93 0.8 SE 9 17 5 9 - - 0.8
21/02:00pm 21.4 22.1 18.0 81 2.1 SE 11 19 6 10 - - 0.2
21/01:30pm 22.0 22.5 18.4 80 2.3 SE 13 22 7 12 - - 0.2
21/01:00pm 22.4 23.0 18.6 79 2.4 SE 13 20 7 11 - - 0.2
21/12:30pm 22.5 22.6 17.4 73 3.2 SE 13 22 7 12 - - 0.2
21/12:00pm 22.7 23.3 18.5 77 2.7 SE 13 28 7 15 - - 0.2
21/11:30am 22.8 23.9 19.6 82 2.1 SE 13 22 7 12 - - 0.2
21/11:00am 21.9 23.8 19.8 88 1.4 SE 9 20 5 11 - - 0.2
21/10:30am 20.7 22.1 19.5 93 0.8 SE 11 22 6 12 - - 0.2
21/10:00am 19.9 21.8 19.7 99 0.1 SE 9 15 5 8 - - 0.2
21/09:30am 18.7 19.3 18.7 100 0.0 SE 13 20 7 11 - - 0.2
21/09:00am 18.3 18.8 18.3 100 0.0 SE 13 24 7 13 - - 29.4
21/08:30am 19.1 20.7 19.1 100 0.0 SE 9 19 5 10 - - 28.2
21/08:00am 19.1 21.1 19.1 100 0.0 SE 7 11 4 6 - - 27.2
21/07:30am 19.1 20.7 19.1 100 0.0 SSE 9 17 5 9 - - 26.2
21/07:00am 19.0 20.2 19.0 100 0.0 SSE 11 17 6 9 - - 25.4
21/06:30am 19.1 20.3 19.1 100 0.0 SE 11 20 6 11 - - 25.2
21/06:00am 19.0 20.2 19.0 100 0.0 SE 11 24 6 13 - - 25.0
21/05:30am 18.6 19.6 18.6 100 0.0 SSE 11 19 6 10 - - 22.8
21/05:00am 18.1 19.6 18.1 100 0.0 S 7 20 4 11 - - 15.6
21/04:30am 17.9 18.6 17.9 100 0.0 SSE 11 19 6 10 - - 14.6
21/04:00am 18.0 18.7 18.0 100 0.0 SSE 11 19 6 10 - - 14.6
21/03:30am 18.4 18.2 18.4 100 0.0 SSE 17 26 9 14 - - 13.6
21/03:00am 18.7 19.3 18.7 100 0.0 SSE 13 20 7 11 - - 12.4
21/02:30am 19.0 20.2 19.0 100 0.0 SSE 11 20 6 11 - - 12.2
21/02:00am 19.2 20.1 19.2 100 0.0 SSE 13 22 7 12 - - 12.0
21/01:30am 19.2 20.5 19.2 100 0.0 SSE 11 19 6 10 - - 11.0
21/01:00am 19.3 20.2 19.3 100 0.0 SE 13 26 7 14 - - 10.6
21/12:30am 19.8 22.1 19.8 100 0.0 SSE 7 13 4 7 - - 9.4
21/12:00am 19.9 22.2 19.9 100 0.0 S 7 15 4 8 - - 5.4
 
Date/Time
EDT
Temp
°C
App
Temp
°C
Dew
Point
°C
Rel
Hum
%
Delta-T
°C
Wind Press
QNH
hPa
Press
MSL
hPa
Rain since
9am
mm
Dir  Spd
km/h
Gust
km/h
Spd
kts
Gust
kts
20/11:30pm 19.9 21.9 19.9 100 0.0 SSE 9 15 5 8 - - 3.8
20/11:00pm 20.0 22.0 20.0 100 0.0 SSE 9 20 5 11 - - 3.4
20/10:30pm 20.0 22.0 20.0 100 0.0 SSE 9 17 5 9 - - 2.4
20/10:00pm 20.0 22.0 20.0 100 0.0 SSE 9 17 5 9 - - 2.0
20/09:30pm 20.0 21.6 20.0 100 0.0 SSE 11 19 6 10 - - 1.8
20/09:00pm 20.0 21.2 20.0 100 0.0 SSE 13 22 7 12 - - 1.6
20/08:30pm 19.7 21.2 19.7 100 0.0 SSE 11 19 6 10 - - 1.4
20/08:00pm 19.5 21.3 19.5 100 0.0 S 9 19 5 10 - - 1.0
20/07:30pm 19.5 20.9 19.5 100 0.0 S 11 20 6 11 - - 1.0
20/07:00pm 19.6 21.4 19.6 100 0.0 S 9 17 5 9 - - 1.0
20/06:30pm 19.7 21.9 19.7 100 0.0 S 7 19 4 10 - - 0.8
20/06:00pm 19.9 22.1 19.7 99 0.1 S 7 13 4 7 - - 0.6
20/05:30pm 20.4 22.3 19.7 96 0.5 SSW 9 15 5 8 - - 0.6
20/05:00pm 20.5 23.1 20.0 97 0.3 SSW 6 11 3 6 - - 0.6
20/04:30pm 20.1 22.5 19.6 97 0.3 SSW 6 13 3 7 - - 0.6
20/04:00pm 20.0 22.5 19.8 99 0.1 SW 6 13 3 7 - - 0.6
20/03:30pm 19.7 22.0 19.5 99 0.1 SW 6 13 3 7 - - 0.6
20/03:00pm 19.5 21.6 19.3 99 0.1 SW 7 13 4 7 - - 0.6
20/02:30pm 19.3 21.4 19.3 100 0.0 WSW 7 13 4 7 - - 0.6
20/02:00pm 18.9 20.8 18.9 100 0.0 SW 7 13 4 7 - - 0.6
20/01:30pm 19.1 21.3 19.1 100 0.0 SW 6 9 3 5 - - 0.6
20/01:00pm 19.2 21.4 19.2 100 0.0 SW 6 13 3 7 - - 0.6
20/12:30pm 18.9 21.0 18.9 100 0.0 SW 6 11 3 6 - - 0.6
20/12:00pm 18.5 20.2 18.5 100 0.0 WSW 7 11 4 6 - - 0.6
20/11:30am 18.4 20.6 18.4 100 0.0 SW 4 9 2 5 - - 0.4
20/11:00am 18.5 20.4 18.5 100 0.0 SW 6 11 3 6 - - 0.4
20/10:30am 18.3 20.1 18.3 100 0.0 SW 6 11 3 6 - - 0.4
20/10:00am 18.3 20.1 18.3 100 0.0 SW 6 11 3 6 - - 0.4
20/09:30am 18.4 20.2 18.4 100 0.0 SW 6 9 3 5 - - 0.2
20/09:00am 18.1 19.8 18.1 100 0.0 SSW 6 9 3 5 - - 4.2
20/08:30am 17.9 19.9 17.9 100 0.0 SW 4 11 2 6 - - 3.6
20/08:00am 17.8 19.4 17.8 100 0.0 SW 6 9 3 5 - - 3.6
20/07:30am 17.7 19.6 17.7 100 0.0 SW 4 9 2 5 - - 3.4
20/07:00am 17.7 19.6 17.7 100 0.0 SSW 4 9 2 5 - - 3.0
20/06:30am 17.7 20.0 17.7 100 0.0 SSW 2 6 1 3 - - 2.8
20/06:00am 17.6 19.5 17.6 100 0.0 SSW 4 7 2 4 - - 2.8
20/05:30am 17.8 20.1 17.8 100 0.0 SW 2 4 1 2 - - 2.6
20/05:00am 17.9 20.3 17.9 100 0.0 WSW 2 4 1 2 - - 2.2
20/04:30am 18.1 20.2 18.1 100 0.0 WSW 4 7 2 4 - - 1.8
20/04:00am 17.9 20.3 17.9 100 0.0 SSW 2 6 1 3 - - 1.2
20/03:30am 17.9 19.9 17.9 100 0.0 SW 4 7 2 4 - - 0.6
20/03:00am 18.0 19.7 18.0 100 0.0 SSW 6 9 3 5 - - 0.6
20/02:30am 18.2 20.0 18.2 100 0.0 S 6 13 3 7 - - 0.6
20/02:00am 18.2 20.0 18.2 100 0.0 SSW 6 15 3 8 - - 0.6
20/01:30am 18.4 20.6 18.4 100 0.0 SSW 4 11 2 6 - - 0.4
20/01:00am 18.6 20.9 18.6 100 0.0 SW 4 7 2 4 - - 0.4
20/12:30am 18.7 21.1 18.7 100 0.0 SSW 4 7 2 4 - - 0.4
20/12:00am 18.7 20.6 18.5 99 0.1 SW 6 15 3 8 - - 0.4
 
Date/Time
EDT
Temp
°C
App
Temp
°C
Dew
Point
°C
Rel
Hum
%
Delta-T
°C
Wind Press
QNH
hPa
Press
MSL
hPa
Rain since
9am
mm
Dir  Spd
km/h
Gust
km/h
Spd
kts
Gust
kts
19/11:30pm 18.8 21.2 18.8 100 0.0 SSW 4 9 2 5 - - 0.4
19/11:00pm 18.9 21.0 18.9 100 0.0 SSW 6 11 3 6 - - 0.4
19/10:30pm 19.1 21.1 19.1 100 0.0 S 7 17 4 9 - - 0.4
19/10:00pm 19.2 20.7 18.9 98 0.2 S 9 19 5 10 - - 0.2
19/09:30pm 19.6 21.6 19.1 97 0.3 S 7 13 4 7 - - 0.2
19/09:00pm 19.8 21.7 19.0 95 0.5 SSE 7 13 4 7 - - 0.0
19/08:30pm 20.3 21.8 19.0 92 0.8 SSE 9 17 5 9 - - 0.0
19/08:00pm 20.3 21.5 19.0 92 0.8 SSE 11 19 6 10 - - 0.0
19/07:30pm 21.1 21.5 19.0 88 1.3 SSE 15 24 8 13 - - 0.0
19/07:00pm 21.3 21.7 18.9 86 1.5 SSE 15 26 8 14 - - 0.0
19/06:30pm 21.8 22.2 19.0 84 1.8 SSE 15 28 8 15 - - 0.0
19/06:00pm 22.1 21.7 18.9 82 2.0 SSE 19 32 10 17 - - 0.0
19/05:30pm 23.1 22.2 19.1 78 2.6 SSE 22 41 12 22 - - 0.0
19/05:00pm 22.7 21.5 18.5 77 2.7 SSE 22 37 12 20 - - 0.0
19/04:30pm 23.1 22.8 18.2 74 3.1 SE 17 30 9 16 - - 0.0
19/04:00pm 24.4 23.8 19.7 75 3.1 SE 22 32 12 17 - - 0.0
19/03:30pm 25.9 25.6 19.5 68 4.2 SE 20 33 11 18 - - 0.0
19/03:00pm 24.4 23.5 19.0 72 3.5 SE 22 37 12 20 - - 0.0
19/02:30pm 24.5 24.4 20.0 76 2.9 SE 20 37 11 20 - - 0.0
19/02:00pm 25.6 25.2 19.0 67 4.3 SE 19 28 10 15 - - 0.0
19/01:30pm 29.0 29.2 19.3 55 6.4 SE 17 30 9 16 - - 0.0
19/01:25pm 29.4 29.3 18.8 53 6.9 SE 17 26 9 14 - - 0.0
19/01:00pm 34.5 34.4 12.2 26 13.5 N 4 7 2 4 - - 0.0
19/12:30pm 33.1 33.2 12.7 29 12.3 WNW 4 9 2 5 - - 0.0
19/12:00pm 30.8 31.2 13.6 35 10.5 N 4 9 2 5 - - 0.0
19/11:30am 29.8 30.4 13.1 36 10.0 N 2 9 1 5 - - 0.0
19/11:00am 28.4 29.6 15.0 44 8.2 WNW 2 6 1 3 - - 0.0
19/10:30am 28.2 28.3 14.4 42 8.4 NW 7 9 4 5 - - 0.0
19/10:00am 28.8 28.0 13.9 40 9.0 NW 11 19 6 10 - - 0.0
19/09:30am 27.4 27.6 15.7 48 7.3 NW 9 15 5 8 - - 0.0
19/09:00am 24.8 25.5 16.0 58 5.4 WNW 7 13 4 7 - - 0.0
19/08:30am 24.2 24.8 15.9 59 5.1 NW 7 13 4 7 - - 0.0
19/08:00am 22.1 23.0 16.1 69 3.7 NW 6 7 3 4 - - 0.0
19/07:30am 20.2 21.2 15.4 74 2.9 NW 4 6 2 3 - - 0.0
19/07:00am 19.1 20.0 15.0 77 2.4 N 4 6 2 3 - - 0.0
19/06:30am 20.0 20.9 15.2 74 2.9 E 4 6 2 3 - - 0.0
19/06:00am 20.6 22.0 15.4 72 3.1 WNW 2 2 1 1 - - 0.0
19/05:30am 21.5 22.8 15.1 67 3.8 E 2 6 1 3 - - 0.0
19/05:00am 21.7 23.2 14.6 64 4.2 CALM 0 2 0 1 - - 0.0
19/04:30am 21.9 22.0 14.5 63 4.4 E 7 11 4 6 - - 0.0
19/04:00am 22.4 22.9 14.0 59 5.0 S 4 9 2 5 - - 0.0
19/03:30am 22.4 22.3 14.0 59 5.0 WSW 7 15 4 8 - - 0.0
19/03:00am 21.9 21.9 14.3 62 4.5 W 7 11 4 6 - - 0.0
19/02:30am 21.2 22.5 15.1 68 3.7 SW 2 7 1 4 - - 0.0
19/02:00am 21.1 21.7 14.3 65 4.0 SSE 4 6 2 3 - - 0.0
19/01:30am 21.8 22.3 13.9 61 4.7 SSE 4 6 2 3 - - 0.0
19/01:00am 22.9 22.6 13.4 55 5.6 SSE 7 11 4 6 - - 0.0
19/12:30am 23.7 23.5 13.6 53 6.0 SSW 7 13 4 7 - - 0.0
19/12:00am 23.5 23.8 14.5 57 5.4 N 6 9 3 5 - - 0.0
 
Date/Time
EDT
Temp
°C
App
Temp
°C
Dew
Point
°C
Rel
Hum
%
Delta-T
°C
Wind Press
QNH
hPa
Press
MSL
hPa
Rain since
9am
mm
Dir  Spd
km/h
Gust
km/h
Spd
kts
Gust
kts
18/11:30pm 23.7 24.1 13.8 53 5.9 NNW 4 9 2 5 - - 0.0
18/11:00pm 25.5 24.7 14.0 49 6.9 NNE 11 19 6 10 - - 0.0
18/10:30pm 25.9 24.5 13.4 46 7.4 NE 13 20 7 11 - - 0.0
18/10:00pm 25.2 24.8 15.2 54 6.1 NE 11 19 6 10 - - 0.0
18/09:30pm 25.2 24.4 15.2 54 6.1 NE 13 22 7 12 - - 0.0
18/09:00pm 25.8 24.1 13.6 47 7.3 NE 15 20 8 11 - - 0.0
18/08:30pm 25.9 24.2 13.7 47 7.3 NE 15 20 8 11 - - 0.0
18/08:00pm 25.8 24.5 13.6 47 7.3 ENE 13 19 7 10 - - 0.0
18/07:30pm 26.1 24.6 13.2 44 7.6 ENE 13 20 7 11 - - 0.0
18/07:00pm 27.0 25.1 13.0 42 8.3 ENE 15 22 8 12 - - 0.0
18/06:30pm 28.0 25.6 12.8 39 9.0 ENE 17 28 9 15 - - 0.0
18/06:00pm 29.3 26.6 13.5 38 9.5 ENE 20 32 11 17 - - 0.0
18/05:30pm 30.5 29.0 15.4 40 9.4 ENE 17 32 9 17 - - 0.0

Other formats

Comma delimited format used in spreadsheet applications
http://www.bom.gov.au/fwo/IDN60801/IDN60801.95774.axf

JavaScript Object Notation format (JSON) in row-major order
http://www.bom.gov.au/fwo/IDN60801/IDN60801.95774.json

Data quality

Most of these data are generated automatically and are frequently updated. Quality checks on data are not normally performed. It is possible for incorrect values to appear. Refer to information at About Latest Weather Observations and please check the disclaimer before using these data.